createdAt,value
2019-05-09T00:00:43.842Z,99.90
2019-05-09T00:03:13.857Z,99.90
2019-05-09T00:05:44.134Z,99.90
2019-05-09T00:08:13.907Z,99.90
2019-05-09T00:10:44.921Z,99.90
2019-05-09T00:13:13.663Z,99.90
2019-05-09T00:15:43.682Z,99.90
2019-05-09T00:18:14.203Z,99.90
2019-05-09T00:20:46.981Z,99.90
2019-05-09T00:23:15.547Z,99.90
2019-05-09T00:25:44.093Z,99.90
2019-05-09T00:28:13.658Z,99.90
2019-05-09T00:30:54.093Z,99.90
2019-05-09T00:33:24.369Z,99.90
2019-05-09T00:35:53.453Z,99.90
2019-05-09T00:38:24.073Z,99.90
2019-05-09T00:40:58.438Z,99.90
2019-05-09T00:43:23.761Z,99.90
2019-05-09T00:46:04.082Z,99.90
2019-05-09T00:48:34.728Z,99.90
2019-05-09T00:51:03.568Z,99.90
2019-05-09T00:53:33.903Z,99.90
2019-05-09T00:56:04.110Z,99.90
2019-05-09T00:58:33.365Z,99.90
2019-05-09T01:01:04.346Z,99.90
2019-05-09T01:03:33.944Z,99.90
2019-05-09T01:06:04.048Z,99.90
2019-05-09T01:08:33.679Z,99.90
2019-05-09T01:11:11.866Z,99.90
2019-05-09T01:13:34.071Z,99.90
2019-05-09T01:16:04.484Z,99.90
2019-05-09T01:18:34.389Z,99.90
2019-05-09T01:21:03.970Z,99.90
2019-05-09T01:23:34.298Z,99.90
2019-05-09T01:26:03.946Z,99.90
2019-05-09T01:28:33.931Z,99.90
2019-05-09T01:31:04.050Z,99.90
2019-05-09T01:33:37.529Z,99.90
2019-05-09T01:36:06.097Z,99.90
2019-05-09T01:38:34.643Z,99.90
2019-05-09T01:41:04.076Z,99.90
2019-05-09T01:43:33.743Z,99.90
2019-05-09T01:46:03.807Z,99.90
2019-05-09T01:48:34.134Z,99.90
2019-05-09T01:51:03.368Z,99.90
2019-05-09T01:53:33.898Z,99.90
2019-05-09T01:56:03.634Z,99.90
2019-05-09T01:58:34.362Z,99.90
2019-05-09T02:01:04.691Z,99.90
2019-05-09T02:03:33.724Z,99.90
2019-05-09T02:06:03.558Z,99.90
2019-05-09T02:08:34.458Z,99.90
2019-05-09T02:11:03.830Z,99.90
2019-05-09T02:13:33.854Z,99.90
2019-05-09T02:16:04.306Z,99.90
2019-05-09T02:18:37.165Z,99.90
2019-05-09T02:21:05.747Z,99.90
2019-05-09T02:23:34.225Z,99.90
2019-05-09T02:26:04.032Z,99.90
2019-05-09T02:28:34.128Z,99.90
2019-05-09T02:31:05.251Z,99.90
2019-05-09T02:33:34.683Z,99.90
2019-05-09T02:36:03.250Z,99.90
2019-05-09T02:38:31.785Z,99.90
2019-05-09T02:41:00.683Z,99.90
2019-05-09T02:43:29.365Z,99.90
2019-05-09T02:46:11.418Z,99.90
2019-05-09T02:48:40.009Z,99.90
2019-05-09T02:51:09.416Z,99.90
2019-05-09T02:53:39.446Z,99.90
2019-05-09T02:56:09.236Z,99.90
2019-05-09T02:58:39.751Z,99.90
2019-05-09T03:01:15.364Z,99.90
2019-05-09T03:03:44.722Z,99.90
2019-05-09T03:06:13.268Z,99.90
2019-05-09T03:08:41.842Z,99.90
2019-05-09T03:11:10.527Z,99.90
2019-05-09T03:13:39.624Z,99.90
2019-05-09T03:16:09.981Z,99.90
2019-05-09T03:18:38.992Z,99.90
2019-05-09T03:21:14.878Z,99.90
2019-05-09T03:23:43.441Z,99.90
2019-05-09T03:26:13.561Z,99.90
2019-05-09T03:28:43.777Z,99.90
2019-05-09T03:31:13.970Z,99.90
2019-05-09T03:33:42.528Z,99.90
2019-05-09T03:36:11.089Z,99.90
2019-05-09T03:38:39.729Z,99.90
2019-05-09T03:41:08.640Z,99.90
2019-05-09T03:43:37.799Z,99.90
2019-05-09T03:46:13.534Z,99.90
2019-05-09T03:48:49.462Z,99.90
2019-05-09T03:51:18.420Z,99.90
2019-05-09T03:53:48.427Z,99.90
2019-05-09T03:56:18.675Z,99.90
2019-05-09T03:58:47.504Z,99.90
2019-05-09T04:01:17.548Z,99.90
2019-05-09T04:03:48.142Z,99.90
2019-05-09T04:06:18.463Z,99.90
2019-05-09T04:08:48.173Z,99.90
2019-05-09T04:11:18.482Z,99.90
2019-05-09T04:13:48.869Z,99.90
2019-05-09T04:16:19.215Z,99.90
2019-05-09T04:18:48.870Z,99.90
2019-05-09T04:21:17.625Z,99.90
2019-05-09T04:23:48.070Z,99.90
2019-05-09T04:26:23.480Z,99.90
2019-05-09T04:28:52.029Z,99.90
2019-05-09T04:31:20.605Z,99.90
2019-05-09T04:33:49.178Z,99.90
2019-05-09T04:36:19.381Z,99.90
2019-05-09T04:38:47.930Z,99.90
2019-05-09T04:41:23.727Z,99.90
2019-05-09T04:43:48.670Z,99.90
2019-05-09T04:46:20.687Z,99.90
2019-05-09T04:48:47.626Z,99.90
2019-05-09T04:51:18.037Z,99.90
2019-05-09T04:53:47.982Z,99.90
2019-05-09T04:56:18.369Z,99.90
2019-05-09T04:58:48.223Z,99.90
2019-05-09T05:01:28.214Z,99.90
2019-05-09T05:03:57.965Z,99.90
2019-05-09T05:06:28.059Z,99.90
2019-05-09T05:08:58.606Z,99.90
2019-05-09T05:11:27.925Z,99.90
2019-05-09T05:13:58.684Z,99.90
2019-05-09T05:16:27.403Z,99.90
2019-05-09T05:18:58.191Z,99.90
2019-05-09T05:21:28.025Z,99.90
2019-05-09T05:23:58.143Z,99.90
2019-05-09T05:26:27.686Z,99.90
2019-05-09T05:28:58.051Z,99.90
2019-05-09T05:31:28.524Z,99.90
2019-05-09T05:33:58.694Z,99.90
2019-05-09T05:36:27.954Z,99.90
2019-05-09T05:38:58.512Z,99.90
2019-05-09T05:41:28.503Z,99.90
2019-05-09T05:43:58.005Z,99.90
2019-05-09T05:46:37.946Z,99.90
2019-05-09T05:49:08.065Z,99.90
2019-05-09T05:51:48.821Z,99.90
2019-05-09T05:54:19.105Z,99.90
2019-05-09T05:56:47.997Z,99.90
2019-05-09T05:59:17.934Z,99.90
2019-05-09T06:01:47.702Z,99.90
2019-05-09T06:04:18.624Z,99.90
2019-05-09T06:06:48.017Z,99.90
2019-05-09T06:09:18.954Z,99.90
2019-05-09T06:11:48.504Z,99.90
2019-05-09T06:14:18.404Z,99.90
2019-05-09T06:16:48.593Z,99.90
2019-05-09T06:19:17.958Z,99.90
2019-05-09T06:21:48.494Z,99.90
2019-05-09T06:24:17.835Z,99.90
2019-05-09T06:26:47.945Z,99.90
2019-05-09T06:29:17.753Z,99.90
2019-05-09T06:31:48.464Z,99.90
2019-05-09T06:34:18.699Z,99.90
2019-05-09T06:36:48.980Z,99.90
2019-05-09T06:39:17.992Z,99.90
2019-05-09T06:41:48.385Z,99.90
2019-05-09T06:44:24.028Z,99.90
2019-05-09T06:46:58.626Z,99.90
2019-05-09T06:49:31.799Z,99.90
2019-05-09T06:51:58.957Z,99.90
2019-05-09T06:54:27.954Z,99.90
2019-05-09T06:56:58.466Z,99.90
2019-05-09T06:59:28.351Z,99.90
2019-05-09T07:01:58.667Z,99.90
2019-05-09T07:04:28.870Z,99.90
2019-05-09T07:07:14.132Z,99.90
2019-05-09T07:09:44.266Z,99.90
2019-05-09T07:12:12.757Z,99.90
2019-05-09T07:14:41.984Z,99.90
2019-05-09T07:17:10.676Z,99.90
2019-05-09T07:19:43.120Z,99.90
2019-05-09T07:22:18.438Z,99.90
2019-05-09T07:24:51.532Z,99.90
2019-05-09T07:27:20.072Z,99.90
2019-05-09T07:29:48.645Z,99.90
2019-05-09T07:32:18.858Z,99.90
2019-05-09T07:34:52.031Z,99.90
2019-05-09T07:37:20.586Z,99.90
2019-05-09T07:39:49.174Z,99.90
2019-05-09T07:42:18.124Z,99.90
2019-05-09T07:44:51.588Z,99.90
2019-05-09T07:47:17.779Z,99.90
2019-05-09T07:49:48.164Z,99.90
2019-05-09T07:52:18.613Z,99.90
2019-05-09T07:54:48.347Z,99.90
2019-05-09T07:57:18.157Z,99.90
2019-05-09T07:59:47.858Z,99.90
2019-05-09T08:02:17.627Z,99.90
2019-05-09T08:04:48.664Z,99.90
2019-05-09T08:07:17.561Z,99.90
2019-05-09T08:09:47.626Z,99.90
2019-05-09T08:12:17.980Z,99.90
2019-05-09T08:15:06.601Z,99.90
2019-05-09T08:17:18.123Z,99.90
2019-05-09T08:19:48.374Z,99.90
2019-05-09T08:22:24.778Z,99.90
2019-05-09T08:24:48.312Z,99.90
2019-05-09T08:27:17.614Z,99.90
2019-05-09T08:29:47.840Z,99.90
2019-05-09T08:32:18.072Z,99.90
2019-05-09T08:34:48.220Z,99.90
2019-05-09T08:37:17.568Z,99.90
2019-05-09T08:39:48.457Z,99.90
2019-05-09T08:42:17.979Z,99.90
2019-05-09T08:44:48.215Z,99.90
2019-05-09T08:47:18.486Z,99.90
2019-05-09T08:49:49.583Z,99.90
2019-05-09T08:52:19.848Z,99.90
2019-05-09T08:54:50.312Z,99.90
2019-05-09T08:57:18.885Z,99.90
2019-05-09T08:59:50.489Z,99.90
2019-05-09T09:02:22.009Z,99.90
2019-05-09T09:04:48.795Z,99.90
2019-05-09T09:07:18.921Z,99.80
2019-05-09T09:09:48.253Z,99.90
2019-05-09T09:12:27.223Z,99.90
2019-05-09T09:14:47.932Z,99.90
2019-05-09T09:17:18.799Z,99.90
2019-05-09T09:19:47.836Z,99.90
2019-05-09T09:22:18.290Z,99.80
2019-05-09T09:24:48.229Z,99.10
2019-05-09T09:27:18.212Z,99.20
2019-05-09T09:29:48.081Z,98.80
2019-05-09T09:32:19.004Z,98.60
2019-05-09T09:34:48.466Z,98.70
2019-05-09T09:37:18.533Z,98.40
2019-05-09T09:39:48.816Z,97.80
2019-05-09T09:42:19.826Z,97.50
2019-05-09T09:44:48.113Z,96.70
2019-05-09T09:47:22.785Z,96.30
2019-05-09T09:49:49.048Z,96.30
2019-05-09T09:52:18.721Z,96.30
2019-05-09T09:54:48.161Z,96.60
2019-05-09T09:57:19.030Z,96.10
2019-05-09T09:59:49.154Z,96.20
2019-05-09T10:02:27.843Z,96.10
2019-05-09T10:04:55.569Z,95.60
2019-05-09T10:07:24.190Z,95.80
2019-05-09T10:09:52.754Z,95.70
2019-05-09T10:12:21.578Z,95.30
2019-05-09T10:14:57.884Z,94.30
2019-05-09T10:17:43.441Z,94.90
2019-05-09T10:20:22.787Z,94.20
2019-05-09T10:23:00.244Z,94.70
2019-05-09T10:25:21.661Z,95.60
2019-05-09T10:27:50.219Z,92.70
2019-05-09T10:30:21.931Z,92.50
2019-05-09T10:32:50.468Z,93.30
2019-05-09T10:35:24.826Z,93.50
2019-05-09T10:37:53.356Z,92.80
2019-05-09T10:40:23.022Z,92.20
2019-05-09T10:42:53.650Z,92.10
2019-05-09T10:45:29.619Z,92.10
2019-05-09T10:48:23.779Z,92.10
2019-05-09T10:50:54.228Z,93.20
2019-05-09T10:53:18.250Z,92.60
2019-05-09T10:55:48.100Z,93.00
2019-05-09T10:58:19.658Z,92.90
2019-05-09T11:00:48.315Z,92.80
2019-05-09T11:03:18.069Z,92.80
2019-05-09T11:05:46.759Z,93.10
2019-05-09T11:08:15.302Z,92.30
2019-05-09T11:10:44.348Z,92.50
2019-05-09T11:13:12.914Z,92.80
2019-05-09T11:15:41.491Z,92.70
2019-05-09T11:18:10.038Z,92.60
2019-05-09T11:20:38.587Z,92.30
2019-05-09T11:23:08.173Z,92.30
2019-05-09T11:25:38.058Z,92.30
2019-05-09T11:28:11.458Z,89.20
2019-05-09T11:30:38.667Z,78.20
2019-05-09T11:33:07.925Z,74.30
2019-05-09T11:35:37.990Z,72.10
2019-05-09T11:38:08.464Z,70.20
2019-05-09T11:40:37.851Z,71.60
2019-05-09T11:43:06.640Z,71.90
2019-05-09T11:45:35.253Z,69.50
2019-05-09T11:48:03.899Z,69.40
2019-05-09T11:50:32.456Z,67.60
2019-05-09T11:53:01.014Z,69.90
2019-05-09T11:55:35.634Z,72.70
2019-05-09T11:57:59.791Z,75.60
2019-05-09T12:00:29.419Z,73.20
2019-05-09T12:02:58.318Z,73.60
2019-05-09T12:05:28.801Z,75.00
2019-05-09T12:07:58.166Z,76.60
2019-05-09T12:10:28.502Z,77.20
2019-05-09T12:12:57.678Z,77.10
2019-05-09T12:15:28.756Z,79.80
2019-05-09T12:18:02.143Z,79.00
2019-05-09T12:20:27.714Z,79.40
2019-05-09T12:22:58.473Z,80.50
2019-05-09T12:25:28.356Z,81.30
2019-05-09T12:27:58.449Z,81.20
2019-05-09T12:30:28.496Z,81.10
2019-05-09T12:32:58.826Z,82.30
2019-05-09T12:35:27.430Z,84.00
2019-05-09T12:37:55.986Z,83.30
2019-05-09T12:40:24.550Z,84.20
2019-05-09T12:42:53.109Z,84.40
2019-05-09T12:45:21.694Z,84.90
2019-05-09T12:48:05.829Z,83.90
2019-05-09T12:50:20.393Z,82.70
2019-05-09T12:52:48.949Z,81.80
2019-05-09T12:55:17.997Z,82.80
2019-05-09T12:57:48.953Z,80.90
2019-05-09T13:00:18.836Z,76.00
2019-05-09T13:02:47.473Z,73.60
2019-05-09T13:05:18.115Z,72.20
2019-05-09T13:07:48.114Z,72.70
2019-05-09T13:10:19.447Z,66.60
2019-05-09T13:12:48.390Z,67.00
2019-05-09T13:15:18.618Z,66.50
2019-05-09T13:17:49.072Z,60.30
2019-05-09T13:20:18.152Z,65.00
2019-05-09T13:22:47.779Z,65.70
2019-05-09T13:25:18.757Z,64.70
2019-05-09T13:27:47.909Z,66.00
2019-05-09T13:30:19.206Z,66.00
2019-05-09T13:32:48.414Z,61.10
2019-05-09T13:35:19.948Z,60.20
2019-05-09T13:37:49.105Z,59.60
2019-05-09T13:40:18.933Z,61.80
2019-05-09T13:42:49.075Z,59.80
2019-05-09T13:45:18.672Z,59.00
2019-05-09T13:47:48.460Z,60.30
2019-05-09T13:50:18.589Z,59.70
2019-05-09T13:52:48.074Z,58.70
2019-05-09T13:55:17.772Z,60.70
2019-05-09T13:57:48.618Z,62.00
2019-05-09T14:00:18.390Z,60.70
2019-05-09T14:02:48.834Z,64.00
2019-05-09T14:05:19.062Z,62.10
2019-05-09T14:07:48.803Z,62.90
2019-05-09T14:10:18.556Z,61.90
2019-05-09T14:13:05.001Z,61.30
2019-05-09T14:15:18.506Z,63.90
2019-05-09T14:17:52.604Z,64.70
2019-05-09T14:20:19.120Z,61.40
2019-05-09T14:22:49.019Z,61.80
2019-05-09T14:25:19.473Z,61.60
2019-05-09T14:27:51.417Z,62.30
2019-05-09T14:30:19.810Z,64.40
2019-05-09T14:32:49.708Z,62.30
2019-05-09T14:35:18.718Z,63.80
2019-05-09T14:37:48.800Z,63.60
2019-05-09T14:40:17.768Z,63.80
2019-05-09T14:42:46.370Z,62.20
2019-05-09T14:45:17.915Z,64.60
2019-05-09T14:47:45.644Z,65.50
2019-05-09T14:50:14.534Z,64.40
2019-05-09T14:52:43.019Z,65.10
2019-05-09T14:55:11.764Z,65.40
2019-05-09T14:57:40.330Z,63.50
2019-05-09T15:00:09.331Z,61.50
2019-05-09T15:02:38.968Z,62.50
2019-05-09T15:05:09.431Z,63.10
2019-05-09T15:07:38.920Z,63.00
2019-05-09T15:10:08.596Z,61.10
2019-05-09T15:12:38.983Z,61.40
2019-05-09T15:15:08.713Z,60.70
2019-05-09T15:17:37.947Z,60.60
2019-05-09T15:20:08.798Z,61.00
2019-05-09T15:22:38.769Z,60.70
2019-05-09T15:25:08.851Z,62.30
2019-05-09T15:27:38.531Z,62.50
2019-05-09T15:30:08.092Z,61.90
2019-05-09T15:32:37.760Z,62.60
2019-05-09T15:35:09.048Z,62.00
2019-05-09T15:37:38.650Z,62.50
2019-05-09T15:40:08.952Z,63.90
2019-05-09T15:42:38.856Z,62.80
2019-05-09T15:45:08.679Z,63.70
2019-05-09T15:47:38.057Z,63.80
2019-05-09T15:50:19.302Z,65.50
2019-05-09T15:52:38.402Z,64.80
2019-05-09T15:55:09.451Z,62.80
2019-05-09T15:57:37.873Z,65.30
2019-05-09T16:00:08.482Z,65.30
2019-05-09T16:02:39.102Z,64.80
2019-05-09T16:05:10.443Z,65.30
2019-05-09T16:07:37.844Z,65.40
2019-05-09T16:10:08.651Z,63.40
2019-05-09T16:12:38.411Z,62.80
2019-05-09T16:15:08.019Z,61.00
2019-05-09T16:17:39.295Z,63.00
2019-05-09T16:20:08.462Z,63.80
2019-05-09T16:22:39.169Z,61.90
2019-05-09T16:25:08.532Z,61.50
2019-05-09T16:27:37.972Z,61.80
2019-05-09T16:30:09.371Z,62.10
2019-05-09T16:32:38.143Z,62.20
2019-05-09T16:35:08.096Z,62.80
2019-05-09T16:37:56.621Z,62.20
2019-05-09T16:40:10.305Z,63.50
2019-05-09T16:42:38.866Z,63.80
2019-05-09T16:45:08.571Z,64.00
2019-05-09T16:47:38.664Z,63.50
2019-05-09T16:50:11.953Z,64.00
2019-05-09T16:52:43.061Z,63.70
2019-05-09T16:55:11.127Z,64.70
2019-05-09T16:57:39.692Z,65.40
2019-05-09T17:00:11.238Z,63.70
2019-05-09T17:02:39.784Z,63.50
2019-05-09T17:05:10.158Z,64.00
2019-05-09T17:07:38.773Z,64.80
2019-05-09T17:10:08.539Z,64.60
2019-05-09T17:12:37.137Z,65.00
2019-05-09T17:15:08.727Z,65.40
2019-05-09T17:17:38.694Z,64.80
2019-05-09T17:20:09.206Z,65.70
2019-05-09T17:23:08.232Z,64.30
2019-05-09T17:25:28.261Z,64.80
2019-05-09T17:27:59.256Z,64.70
2019-05-09T17:30:28.680Z,66.20
2019-05-09T17:32:58.646Z,66.60
2019-05-09T17:35:28.029Z,65.60
2019-05-09T17:37:56.819Z,66.50
2019-05-09T17:40:27.939Z,66.90
2019-05-09T17:42:55.871Z,68.30
2019-05-09T17:45:24.439Z,67.60
2019-05-09T17:47:52.980Z,67.80
2019-05-09T17:50:28.392Z,69.20
2019-05-09T17:52:57.858Z,69.50
2019-05-09T17:55:26.551Z,69.00
2019-05-09T17:57:55.094Z,68.70
2019-05-09T18:00:24.222Z,68.40
2019-05-09T18:02:52.760Z,69.30
2019-05-09T18:05:21.500Z,69.80
2019-05-09T18:07:50.125Z,72.50
2019-05-09T18:10:20.298Z,75.60
2019-05-09T18:12:49.218Z,77.60
2019-05-09T18:15:18.781Z,78.20
2019-05-09T18:17:47.962Z,78.50
2019-05-09T18:20:17.903Z,77.70
2019-05-09T18:22:47.956Z,77.90
2019-05-09T18:25:18.768Z,77.90
2019-05-09T18:27:48.814Z,78.30
2019-05-09T18:30:17.826Z,78.60
2019-05-09T18:32:50.994Z,78.70
2019-05-09T18:35:30.240Z,79.10
2019-05-09T18:37:59.102Z,78.90
2019-05-09T18:40:28.292Z,79.40
2019-05-09T18:42:58.371Z,79.30
2019-05-09T18:45:28.237Z,79.60
2019-05-09T18:47:58.073Z,80.10
2019-05-09T18:50:27.063Z,80.50
2019-05-09T18:52:55.638Z,80.90
2019-05-09T18:55:24.254Z,81.60
2019-05-09T18:57:52.824Z,82.20
2019-05-09T19:00:22.118Z,82.50
2019-05-09T19:02:50.934Z,82.60
2019-05-09T19:05:19.830Z,82.90
2019-05-09T19:07:48.452Z,83.30
2019-05-09T19:10:17.554Z,84.40
2019-05-09T19:12:46.290Z,83.40
2019-05-09T19:15:33.545Z,83.50
2019-05-09T19:18:03.781Z,85.30
2019-05-09T19:20:33.969Z,87.70
2019-05-09T19:23:02.588Z,86.80
2019-05-09T19:25:31.421Z,87.30
2019-05-09T19:27:59.991Z,89.40
2019-05-09T19:30:28.717Z,90.90
2019-05-09T19:32:57.225Z,89.40
2019-05-09T19:35:25.772Z,91.20
2019-05-09T19:37:58.662Z,93.70
2019-05-09T19:40:27.322Z,93.50
2019-05-09T19:42:55.882Z,93.70
2019-05-09T19:45:24.434Z,93.60
2019-05-09T19:47:53.015Z,96.50
2019-05-09T19:50:21.642Z,96.80
2019-05-09T19:52:50.212Z,95.70
2019-05-09T19:55:18.756Z,95.70
2019-05-09T19:57:47.303Z,94.00
2019-05-09T20:00:16.676Z,94.40
2019-05-09T20:02:45.324Z,93.10
2019-05-09T20:05:14.133Z,92.90
2019-05-09T20:07:42.644Z,92.90
2019-05-09T20:10:12.978Z,93.10
2019-05-09T20:12:43.156Z,93.40
2019-05-09T20:15:13.732Z,93.80
2019-05-09T20:17:42.283Z,93.70
2019-05-09T20:20:10.990Z,93.50
2019-05-09T20:22:51.896Z,93.30
2019-05-09T20:25:10.295Z,93.40
2019-05-09T20:27:38.830Z,93.60
2019-05-09T20:30:08.034Z,94.00
2019-05-09T20:32:36.580Z,94.20
2019-05-09T20:35:07.103Z,94.70
2019-05-09T20:37:35.826Z,95.30
2019-05-09T20:40:07.014Z,95.80
2019-05-09T20:42:35.828Z,95.60
2019-05-09T20:45:06.370Z,96.00
2019-05-09T20:47:35.038Z,96.20
2019-05-09T20:50:05.426Z,96.50
2019-05-09T20:52:34.152Z,96.70
2019-05-09T20:55:02.902Z,97.10
2019-05-09T20:57:31.634Z,97.20
2019-05-09T21:00:00.319Z,97.30
2019-05-09T21:02:29.075Z,97.20
2019-05-09T21:04:57.832Z,97.50
2019-05-09T21:07:26.560Z,97.70
2019-05-09T21:09:55.302Z,97.70
2019-05-09T21:12:24.034Z,97.80
2019-05-09T21:14:52.824Z,98.00
2019-05-09T21:17:21.506Z,98.50
2019-05-09T21:19:50.308Z,98.40
2019-05-09T21:22:18.986Z,98.50
2019-05-09T21:24:47.720Z,98.80
2019-05-09T21:27:16.372Z,98.80
2019-05-09T21:29:45.063Z,98.80
2019-05-09T21:32:13.808Z,99.10
2019-05-09T21:34:42.379Z,99.10
2019-05-09T21:37:13.830Z,99.20
2019-05-09T21:39:41.134Z,99.30
2019-05-09T21:42:09.686Z,99.50
2019-05-09T21:44:38.254Z,99.60
2019-05-09T21:47:06.984Z,99.90
2019-05-09T21:49:35.498Z,99.90
2019-05-09T21:52:04.118Z,99.90
2019-05-09T21:54:32.678Z,99.90
2019-05-09T21:57:01.314Z,99.90
2019-05-09T21:59:29.960Z,99.90
2019-05-09T22:01:59.378Z,99.90
2019-05-09T22:04:27.922Z,99.90
2019-05-09T22:06:56.516Z,99.90
2019-05-09T22:09:25.116Z,99.90
2019-05-09T22:11:53.678Z,99.90
2019-05-09T22:14:22.348Z,99.90
2019-05-09T22:16:50.901Z,99.90
2019-05-09T22:19:19.442Z,99.90
2019-05-09T22:21:48.018Z,99.90
2019-05-09T22:24:16.556Z,99.90
2019-05-09T22:26:45.070Z,99.90
2019-05-09T22:29:13.630Z,99.90
2019-05-09T22:31:42.168Z,99.90
2019-05-09T22:34:10.834Z,99.90
2019-05-09T22:36:39.383Z,99.90
2019-05-09T22:39:08.254Z,99.90
2019-05-09T22:41:36.803Z,99.90
2019-05-09T22:44:05.426Z,99.90
2019-05-09T22:46:33.998Z,99.90
2019-05-09T22:49:02.667Z,99.90
2019-05-09T22:51:31.220Z,99.90
2019-05-09T22:54:12.429Z,99.90
2019-05-09T22:56:29.966Z,99.90
2019-05-09T22:58:58.520Z,99.90
2019-05-09T23:01:27.137Z,99.90
2019-05-09T23:03:55.736Z,99.90
2019-05-09T23:06:24.301Z,99.90
2019-05-09T23:08:52.868Z,99.90
2019-05-09T23:11:21.500Z,99.90
2019-05-09T23:13:52.798Z,99.90
2019-05-09T23:16:27.417Z,99.90
2019-05-09T23:18:56.053Z,99.90
2019-05-09T23:21:26.275Z,99.90
2019-05-09T23:24:08.516Z,99.90
2019-05-09T23:26:37.076Z,99.90
2019-05-09T23:29:05.751Z,99.90
2019-05-09T23:31:35.892Z,99.90
2019-05-09T23:34:04.639Z,99.90
2019-05-09T23:36:33.275Z,99.90
2019-05-09T23:39:09.416Z,99.90
2019-05-09T23:41:37.990Z,99.90
2019-05-09T23:44:06.597Z,99.90
2019-05-09T23:46:35.071Z,99.90
2019-05-09T23:49:03.829Z,99.90
2019-05-09T23:51:45.940Z,99.90
2019-05-09T23:54:45.164Z,99.90
2019-05-09T23:57:23.818Z,99.90
